< < Back
Terminal Aerodrome Forecast


Current Version              Previous Versions:   1  2  3  4  5  6  7  8  9  

Terminal Aerodrome Forecast

823
FTUS42 KFFC 202300
TAFCSG
TAF
KCSG 202338Z 2100/2124 VRB03KT P6SM SCT250
     FM211400 27006KT P6SM SKC
     FM211900 29010KT P6SM SCT050=

Latest METAR

619
SAUS70 KWBC 210400
MTRCSG
METAR KCSG 210351Z AUTO 00000KT 10SM CLR 21/18 A3001 RMK AO2 SLP158
T02110178 $


USA.gov is the U.S. government's official web portal to all federal, state and local government web resources and services.